Time;durP1;ratioP1;P1;durP2;ratioP2;P2;SDS_P1;SDS_P2;PMS_P1;PMS_P2;Temp;Humidity;BMP_temperature;BMP_pressure;BME280_temperature;BME280_humidity;BME280_pressure;Samples;Min_cycle;Max_cycle;Signal;HPM_P1;HPM_P2
2023/08/16 00:02:20;;;;;;;18.97;16.60;;;21.90;99.90;;;;;;4818410;29;20185;-78
2023/08/16 00:04:46;;;;;;;18.77;16.97;;;21.90;99.90;;;;;;4832182;29;20233;-79
2023/08/16 00:07:12;;;;;;;20.07;17.97;;;21.90;99.90;;;;;;4818519;29;20639;-83
2023/08/16 00:09:39;;;;;;;17.93;16.13;;;21.90;99.90;;;;;;4818349;29;20202;-83
2023/08/16 00:12:06;;;;;;;19.70;17.67;;;21.90;99.90;;;;;;4818559;29;20346;-83
2023/08/16 00:14:32;;;;;;;19.77;17.87;;;21.80;99.90;;;;;;4817056;29;20509;-83
2023/08/16 00:16:58;;;;;;;18.50;16.83;;;21.70;99.90;;;;;;4816710;29;20528;-83
2023/08/16 00:19:24;;;;;;;18.63;16.93;;;21.70;99.90;;;;;;4818055;29;20720;-83
2023/08/16 00:21:50;;;;;;;19.17;17.37;;;21.70;99.90;;;;;;4818152;29;20239;-82
2023/08/16 00:24:16;;;;;;;19.53;17.63;;;21.70;99.90;;;;;;4816349;29;20428;-83
2023/08/16 00:26:42;;;;;;;18.97;17.07;;;21.60;99.90;;;;;;4818231;29;20426;-83
2023/08/16 00:29:07;;;;;;;17.60;16.00;;;21.60;99.90;;;;;;4818197;29;20581;-83
2023/08/16 00:31:33;;;;;;;18.27;16.47;;;21.60;99.90;;;;;;4817556;29;20206;-83
2023/08/16 00:33:59;;;;;;;18.00;16.33;;;21.60;99.90;;;;;;4816785;29;20186;-83
2023/08/16 00:36:24;;;;;;;19.50;17.60;;;21.60;99.90;;;;;;4818008;29;20206;-79
2023/08/16 00:38:50;;;;;;;18.30;16.07;;;21.60;99.90;;;;;;4817921;29;20182;-81
2023/08/16 00:41:16;;;;;;;19.67;17.80;;;21.60;99.90;;;;;;4817028;29;20572;-79
2023/08/16 00:43:41;;;;;;;18.33;16.63;;;21.70;99.90;;;;;;4816071;29;20224;-83
2023/08/16 00:46:10;;;;;;;17.57;15.87;;;21.70;99.90;;;;;;4817920;29;20693;-79
2023/08/16 00:48:38;;;;;;;17.30;15.70;;;21.70;99.90;;;;;;4816079;29;20263;-83
2023/08/16 00:51:05;;;;;;;17.07;15.37;;;21.70;99.90;;;;;;4817230;29;20437;-79
2023/08/16 00:53:32;;;;;;;17.13;15.47;;;21.70;99.90;;;;;;4831471;29;21078;-83
2023/08/16 00:55:58;;;;;;;16.50;14.90;;;21.80;99.90;;;;;;4817550;29;20438;-82
2023/08/16 00:58:25;;;;;;;18.30;15.20;;;21.80;99.90;;;;;;4818102;29;20433;-82
2023/08/16 01:00:51;;;;;;;18.30;16.37;;;21.70;99.90;;;;;;4817450;29;20451;-79
2023/08/16 01:03:16;;;;;;;19.37;17.20;;;21.70;99.90;;;;;;4817310;29;20433;-83
2023/08/16 01:05:42;;;;;;;17.67;16.03;;;21.70;99.90;;;;;;4816189;29;20206;-79
2023/08/16 01:08:08;;;;;;;18.10;16.40;;;21.70;99.90;;;;;;4817667;29;20181;-83
2023/08/16 01:11:07;;;;;;;18.23;16.50;;;21.70;99.90;;;;;;4816167;29;20210;-83
2023/08/16 01:13:46;;;;;;;17.67;15.97;;;21.60;99.90;;;;;;4817341;29;20477;-83
2023/08/16 01:16:12;;;;;;;16.87;15.07;;;21.60;99.90;;;;;;4831130;29;20453;-83
2023/08/16 01:18:40;;;;;;;18.47;16.67;;;21.60;99.90;;;;;;4817327;29;20433;-79
2023/08/16 01:21:08;;;;;;;18.33;16.43;;;21.60;99.90;;;;;;4817017;29;20202;-83
2023/08/16 01:23:53;;;;;;;17.20;15.60;;;21.60;99.90;;;;;;4816857;29;20512;-84
2023/08/16 01:26:29;;;;;;;18.20;16.40;;;21.60;99.90;;;;;;4817382;29;20864;-83
2023/08/16 01:28:57;;;;;;;17.23;15.63;;;21.50;99.90;;;;;;4817031;29;20448;-83
2023/08/16 01:31:23;;;;;;;19.73;17.63;;;21.50;99.90;;;;;;4815974;29;20517;-78
2023/08/16 01:33:48;;;;;;;19.63;17.43;;;21.50;99.90;;;;;;4816870;29;20481;-79
2023/08/16 01:36:14;;;;;;;20.63;18.53;;;21.50;99.90;;;;;;4817166;29;20498;-82
2023/08/16 01:38:40;;;;;;;18.80;17.00;;;21.50;99.90;;;;;;4815975;29;20662;-83
2023/08/16 01:41:15;;;;;;;18.50;16.60;;;21.50;99.90;;;;;;4816796;29;20213;-83
2023/08/16 01:43:43;;;;;;;18.57;16.60;;;21.50;99.90;;;;;;4816257;29;20559;-84
2023/08/16 01:46:10;;;;;;;20.27;17.57;;;21.40;99.90;;;;;;4815194;29;20545;-82
2023/08/16 01:48:38;;;;;;;20.07;18.07;;;21.40;99.90;;;;;;4816721;29;20485;-83
2023/08/16 01:51:04;;;;;;;19.93;16.93;;;21.30;99.90;;;;;;4815065;29;20452;-78
2023/08/16 01:53:31;;;;;;;16.97;15.13;;;21.20;99.90;;;;;;4816734;29;20550;-83
2023/08/16 01:55:56;;;;;;;17.47;15.67;;;21.20;99.90;;;;;;4817105;29;20943;-83
2023/08/16 01:58:22;;;;;;;19.30;16.50;;;21.00;99.90;;;;;;4817086;29;20567;-83
2023/08/16 02:00:48;;;;;;;18.07;16.33;;;20.90;99.90;;;;;;4815675;29;20362;-82
2023/08/16 02:03:13;;;;;;;20.07;18.03;;;20.90;99.90;;;;;;4817080;29;20182;-78
2023/08/16 02:05:39;;;;;;;19.93;18.00;;;20.90;99.90;;;;;;4816490;29;20217;-77
2023/08/16 02:08:05;;;;;;;18.97;17.00;;;20.90;99.90;;;;;;4816913;29;20210;-78
2023/08/16 02:10:30;;;;;;;20.80;18.67;;;21.00;99.90;;;;;;4815383;29;20308;-83
2023/08/16 02:12:56;;;;;;;17.90;16.20;;;21.10;99.90;;;;;;4816760;29;20405;-83
2023/08/16 02:15:22;;;;;;;19.27;17.27;;;21.10;99.90;;;;;;4815530;29;20209;-82
2023/08/16 02:17:47;;;;;;;20.83;18.63;;;21.20;99.90;;;;;;4815050;29;20682;-82
2023/08/16 02:20:13;;;;;;;19.63;17.57;;;21.20;99.90;;;;;;4816687;29;20625;-79
2023/08/16 02:22:39;;;;;;;19.20;17.23;;;21.30;99.90;;;;;;4830451;29;20578;-82
2023/08/16 02:25:06;;;;;;;19.27;17.30;;;21.40;99.90;;;;;;4816173;29;20299;-79
2023/08/16 02:27:34;;;;;;;21.40;19.10;;;21.40;99.90;;;;;;4816549;29;20429;-83
2023/08/16 02:30:00;;;;;;;18.57;16.67;;;21.50;99.90;;;;;;4815156;29;20449;-79
2023/08/16 02:32:26;;;;;;;19.03;17.13;;;21.60;99.90;;;;;;4816244;29;20944;-78
2023/08/16 02:34:51;;;;;;;18.30;16.50;;;21.70;99.90;;;;;;4815161;29;20234;-79
2023/08/16 02:37:18;;;;;;;21.53;17.97;;;21.70;99.90;;;;;;4816533;29;20572;-79
2023/08/16 02:39:44;;;;;;;19.60;17.10;;;21.70;99.90;;;;;;4816535;29;20343;-78
2023/08/16 02:42:09;;;;;;;19.53;17.00;;;21.70;99.90;;;;;;4816527;29;21037;-79
2023/08/16 02:44:35;;;;;;;19.53;17.53;;;21.70;99.90;;;;;;4830426;29;20197;-83
2023/08/16 02:47:01;;;;;;;18.53;16.73;;;21.80;99.90;;;;;;4814848;29;20194;-78
2023/08/16 02:49:26;;;;;;;19.13;17.03;;;21.80;99.90;;;;;;4815711;29;20182;-79
2023/08/16 02:51:52;;;;;;;19.60;17.80;;;21.80;99.90;;;;;;4816223;29;20663;-79
2023/08/16 02:54:18;;;;;;;21.77;19.57;;;21.80;99.90;;;;;;4816410;29;20645;-83
2023/08/16 02:56:43;;;;;;;20.67;18.70;;;21.80;99.90;;;;;;4819416;29;20186;-79
2023/08/16 02:59:13;;;;;;;20.63;18.60;;;21.80;99.90;;;;;;4819492;29;20194;-79
2023/08/16 03:01:38;;;;;;;23.53;18.30;;;21.80;99.90;;;;;;4818087;29;20574;-83
2023/08/16 03:04:05;;;;;;;20.13;18.13;;;21.80;99.90;;;;;;4817910;29;20440;-82
2023/08/16 03:06:31;;;;;;;19.50;17.33;;;21.80;99.90;;;;;;4833010;29;20752;-79
2023/08/16 03:08:56;;;;;;;19.27;17.47;;;21.90;99.90;;;;;;4819284;29;20417;-83
2023/08/16 03:11:22;;;;;;;20.60;17.90;;;21.90;99.90;;;;;;4819384;29;20201;-84
2023/08/16 03:13:48;;;;;;;21.73;19.43;;;22.00;99.90;;;;;;4817568;29;20651;-82
2023/08/16 03:16:13;;;;;;;21.80;18.30;;;22.00;99.90;;;;;;4817835;29;20210;-81
2023/08/16 03:18:39;;;;;;;20.60;18.50;;;22.00;99.90;;;;;;4819036;29;20486;-79
2023/08/16 03:21:05;;;;;;;21.63;19.53;;;22.00;99.90;;;;;;4819064;29;20247;-82
2023/08/16 03:23:30;;;;;;;19.43;17.43;;;22.00;99.90;;;;;;4818851;29;20190;-83
2023/08/16 03:25:56;;;;;;;20.60;18.40;;;22.00;99.90;;;;;;4818481;29;20599;-83
2023/08/16 03:28:22;;;;;;;22.03;19.83;;;21.90;99.90;;;;;;4819109;29;20178;-83
2023/08/16 03:30:48;;;;;;;26.70;18.33;;;21.90;99.90;;;;;;4818870;29;20202;-83
2023/08/16 03:33:13;;;;;;;21.70;18.60;;;21.90;99.90;;;;;;4817489;29;20218;-78
2023/08/16 03:35:39;;;;;;;21.23;19.17;;;21.90;99.90;;;;;;4818838;29;20734;-82
2023/08/16 03:38:04;;;;;;;21.17;18.97;;;21.90;99.90;;;;;;4818808;29;20234;-79
2023/08/16 03:40:30;;;;;;;21.87;19.60;;;21.90;99.90;;;;;;4817312;29;20285;-83
2023/08/16 03:42:56;;;;;;;21.07;19.07;;;22.00;99.90;;;;;;4818145;29;20324;-83
2023/08/16 03:45:24;;;;;;;20.77;18.60;;;21.90;99.90;;;;;;4817035;29;20262;-78
2023/08/16 03:47:51;;;;;;;25.20;20.97;;;21.90;99.90;;;;;;4817103;29;20388;-78
2023/08/16 03:50:17;;;;;;;22.70;18.77;;;21.90;99.90;;;;;;4818021;29;20466;-83
2023/08/16 03:52:42;;;;;;;22.10;19.93;;;21.80;99.90;;;;;;4829882;29;20580;-82
2023/08/16 03:55:09;;;;;;;21.77;19.47;;;21.80;99.90;;;;;;4817347;29;21027;-83
2023/08/16 03:57:34;;;;;;;22.27;18.63;;;21.80;99.90;;;;;;4818216;29;20264;-83
2023/08/16 04:00:00;;;;;;;24.90;20.97;;;21.80;99.90;;;;;;4818811;29;20529;-82
2023/08/16 04:02:25;;;;;;;21.53;19.33;;;21.80;99.90;;;;;;4816786;29;20671;-82
2023/08/16 04:04:53;;;;;;;24.07;19.43;;;21.80;99.90;;;;;;4832105;29;20201;-83
2023/08/16 04:07:18;;;;;;;22.97;20.53;;;21.80;99.90;;;;;;4817404;29;20250;-83
2023/08/16 04:09:44;;;;;;;22.57;20.20;;;21.80;99.90;;;;;;4832099;29;20446;-83
2023/08/16 04:12:10;;;;;;;22.00;19.73;;;21.80;99.90;;;;;;4818035;29;20310;-79
2023/08/16 04:14:35;;;;;;;22.13;19.93;;;21.80;99.90;;;;;;4816916;29;20185;-82
2023/08/16 04:17:01;;;;;;;21.20;19.07;;;21.80;99.90;;;;;;4818268;29;20430;-82
2023/08/16 04:19:27;;;;;;;24.00;21.47;;;21.80;99.90;;;;;;4817856;29;20257;-78
2023/08/16 04:21:52;;;;;;;21.27;19.07;;;21.80;99.90;;;;;;4817857;29;20190;-83
2023/08/16 04:24:18;;;;;;;23.60;21.10;;;21.80;99.90;;;;;;4818194;29;20419;-78
2023/08/16 04:26:44;;;;;;;25.03;22.33;;;21.80;99.90;;;;;;4831592;29;20186;-78
2023/08/16 04:29:10;;;;;;;24.73;22.13;;;21.70;99.90;;;;;;4816731;29;20188;-81
2023/08/16 04:31:35;;;;;;;24.67;22.07;;;21.70;99.90;;;;;;4817904;29;20217;-78
2023/08/16 04:34:01;;;;;;;22.47;20.20;;;21.70;99.90;;;;;;4817918;29;20679;-78
2023/08/16 04:36:26;;;;;;;25.27;21.97;;;21.60;99.90;;;;;;4817495;29;20493;-78
2023/08/16 04:38:52;;;;;;;23.60;21.30;;;21.70;99.90;;;;;;4817754;29;20190;-83
2023/08/16 04:41:18;;;;;;;23.13;20.83;;;21.60;99.90;;;;;;4816326;29;20210;-83
2023/08/16 04:43:44;;;;;;;25.40;21.80;;;21.60;99.90;;;;;;4817548;29;20212;-78
2023/08/16 04:46:09;;;;;;;23.03;20.53;;;21.60;99.90;;;;;;4817563;29;20202;-83
2023/08/16 04:48:35;;;;;;;23.30;20.83;;;21.70;99.90;;;;;;4817527;29;20422;-80
2023/08/16 04:51:01;;;;;;;25.00;21.73;;;21.70;99.90;;;;;;4812727;29;20661;-83
2023/08/16 04:53:26;;;;;;;23.73;21.20;;;21.70;99.90;;;;;;4809224;29;20723;-78
2023/08/16 04:55:52;;;;;;;23.50;21.10;;;21.70;99.90;;;;;;4807681;29;20203;-78
2023/08/16 04:58:18;;;;;;;22.63;20.37;;;21.80;99.90;;;;;;4806770;29;20183;-78
2023/08/16 05:00:44;;;;;;;21.30;19.10;;;21.70;99.90;;;;;;4807572;29;20347;-82
2023/08/16 05:03:09;;;;;;;22.77;20.13;;;21.70;99.90;;;;;;4807857;29;20186;-79
2023/08/16 05:05:35;;;;;;;23.43;21.10;;;21.70;99.90;;;;;;4806304;29;20442;-83
2023/08/16 05:08:01;;;;;;;23.30;20.77;;;21.70;99.90;;;;;;4805620;29;20197;-78
2023/08/16 05:10:26;;;;;;;29.73;19.27;;;21.70;99.90;;;;;;4806891;29;20217;-78
2023/08/16 05:12:52;;;;;;;19.80;17.70;;;21.60;99.90;;;;;;4806529;29;20788;-83
2023/08/16 05:15:18;;;;;;;20.73;18.53;;;21.50;99.90;;;;;;4808154;29;20273;-78
2023/08/16 05:17:43;;;;;;;23.97;21.23;;;21.40;99.90;;;;;;4809925;29;20194;-78
2023/08/16 05:20:10;;;;;;;23.70;21.23;;;21.40;99.90;;;;;;4809358;29;20697;-78
2023/08/16 05:22:35;;;;;;;23.63;21.23;;;21.30;99.90;;;;;;4803563;29;20281;-83
2023/08/16 05:25:01;;;;;;;23.17;19.97;;;21.30;99.90;;;;;;4811145;29;20540;-78
2023/08/16 05:27:28;;;;;;;23.30;20.80;;;21.20;99.90;;;;;;4804508;29;20238;-82
2023/08/16 05:29:54;;;;;;;20.67;18.57;;;21.30;99.90;;;;;;4805509;29;20449;-78
2023/08/16 05:32:20;;;;;;;23.93;21.47;;;21.40;99.90;;;;;;4803575;29;20774;-82
2023/08/16 05:34:45;;;;;;;26.17;21.47;;;21.40;99.90;;;;;;4803698;29;20570;-83
2023/08/16 05:37:11;;;;;;;22.27;19.97;;;21.50;99.90;;;;;;4802477;29;20194;-83
2023/08/16 05:39:38;;;;;;;23.97;21.67;;;21.50;99.90;;;;;;4805191;29;20211;-83
2023/08/16 05:42:04;;;;;;;22.50;20.17;;;21.50;99.90;;;;;;4801954;29;20198;-79
2023/08/16 05:44:29;;;;;;;22.43;20.13;;;21.50;99.90;;;;;;4803849;29;20974;-78
2023/08/16 05:46:55;;;;;;;24.93;22.43;;;21.50;99.90;;;;;;4804338;29;20450;-78
2023/08/16 05:49:21;;;;;;;23.93;21.50;;;21.50;99.90;;;;;;4804074;29;20408;-83
2023/08/16 05:51:46;;;;;;;21.77;19.77;;;21.40;99.90;;;;;;4808203;29;20221;-78
2023/08/16 05:54:12;;;;;;;23.57;21.37;;;21.40;99.90;;;;;;4804729;29;20252;-79
2023/08/16 05:56:38;;;;;;;23.77;20.33;;;21.40;99.90;;;;;;4801310;29;20253;-78
2023/08/16 05:59:04;;;;;;;26.63;23.93;;;21.40;99.90;;;;;;4804459;29;20496;-81
2023/08/16 06:01:29;;;;;;;25.40;22.87;;;21.40;99.90;;;;;;4804761;29;20210;-78
2023/08/16 06:03:55;;;;;;;23.70;21.10;;;21.40;99.90;;;;;;4805035;29;20194;-78
2023/08/16 06:06:20;;;;;;;23.80;21.40;;;21.40;99.90;;;;;;4801764;29;20217;-78
2023/08/16 06:08:46;;;;;;;21.20;19.13;;;21.50;99.90;;;;;;4803988;29;20507;-83
2023/08/16 06:11:12;;;;;;;22.27;19.47;;;21.50;99.90;;;;;;4804306;29;20423;-79
2023/08/16 06:13:37;;;;;;;20.23;18.13;;;21.60;99.90;;;;;;4804669;29;20229;-83
2023/08/16 06:16:03;;;;;;;18.67;16.87;;;21.60;99.90;;;;;;4801632;29;20442;-78
2023/08/16 06:18:29;;;;;;;19.30;17.30;;;21.70;99.90;;;;;;4812521;29;20221;-78
2023/08/16 06:20:55;;;;;;;17.80;16.07;;;21.70;99.90;;;;;;4805034;29;20458;-83
2023/08/16 06:23:20;;;;;;;18.70;16.80;;;21.80;99.90;;;;;;4806491;29;20200;-83
2023/08/16 06:25:46;;;;;;;17.93;16.03;;;21.90;99.90;;;;;;4801180;29;20233;-82
2023/08/16 06:28:12;;;;;;;18.03;16.10;;;22.00;99.90;;;;;;4802361;29;20355;-83
2023/08/16 06:30:38;;;;;;;18.33;16.57;;;22.00;99.90;;;;;;4810626;29;20730;-78
2023/08/16 06:33:04;;;;;;;17.63;16.03;;;22.10;99.90;;;;;;4811954;29;20229;-83
2023/08/16 06:35:29;;;;;;;18.87;17.03;;;22.20;99.90;;;;;;4798315;29;20475;-83
2023/08/16 06:37:57;;;;;;;21.60;17.20;;;22.20;99.90;;;;;;4815254;29;20460;-83
2023/08/16 06:40:23;;;;;;;18.10;16.40;;;22.20;99.90;;;;;;4810729;29;20312;-83
2023/08/16 06:42:48;;;;;;;19.83;17.90;;;22.20;99.90;;;;;;4797383;29;20478;-78
2023/08/16 06:45:14;;;;;;;20.17;18.00;;;22.30;99.90;;;;;;4811293;29;20906;-83
2023/08/16 06:47:42;;;;;;;19.63;17.50;;;22.30;99.90;;;;;;4813649;29;20284;-78
2023/08/16 06:50:08;;;;;;;19.10;16.97;;;22.30;99.90;;;;;;4816164;29;20202;-79
2023/08/16 06:52:34;;;;;;;19.77;17.70;;;22.30;99.90;;;;;;4814888;29;20600;-78
2023/08/16 06:55:00;;;;;;;23.50;18.57;;;22.30;99.90;;;;;;4815050;29;20583;-77
2023/08/16 06:57:25;;;;;;;22.23;18.87;;;22.30;99.90;;;;;;4812634;29;20763;-78
2023/08/16 06:59:51;;;;;;;21.83;19.00;;;22.30;99.90;;;;;;4811298;29;20533;-83
2023/08/16 07:02:17;;;;;;;22.70;20.37;;;22.20;99.90;;;;;;4808814;29;20256;-78
2023/08/16 07:04:43;;;;;;;23.50;21.00;;;22.10;99.90;;;;;;4833381;29;20633;-79
2023/08/16 07:07:10;;;;;;;20.17;18.30;;;22.10;99.90;;;;;;4806516;29;20442;-81
2023/08/16 07:09:37;;;;;;;21.47;19.27;;;22.10;99.90;;;;;;4803805;29;20480;-83
2023/08/16 07:12:04;;;;;;;22.53;20.27;;;22.00;99.90;;;;;;4811329;29;20492;-79
2023/08/16 07:14:29;;;;;;;22.33;20.00;;;22.10;99.90;;;;;;4808322;29;20438;-79
2023/08/16 07:16:55;;;;;;;24.93;21.67;;;22.10;99.90;;;;;;4807657;29;20434;-78
2023/08/16 07:19:21;;;;;;;23.43;21.10;;;22.10;99.90;;;;;;4807099;29;20182;-83
2023/08/16 07:21:48;;;;;;;25.00;22.27;;;22.20;99.90;;;;;;4811301;29;20200;-83
2023/08/16 07:24:14;;;;;;;23.83;21.13;;;22.30;99.90;;;;;;4806872;29;20450;-83
2023/08/16 07:26:39;;;;;;;24.00;21.60;;;22.40;99.90;;;;;;4809487;29;20493;-82
2023/08/16 07:29:05;;;;;;;21.57;19.47;;;22.40;99.90;;;;;;4809628;29;20186;-80
2023/08/16 07:31:31;;;;;;;22.20;20.00;;;22.50;99.90;;;;;;4809530;29;20225;-79
2023/08/16 07:33:56;;;;;;;23.20;19.33;;;22.50;99.90;;;;;;4804856;29;20222;-79
2023/08/16 07:36:22;;;;;;;20.50;18.50;;;22.50;99.90;;;;;;4821000;29;20243;-83
2023/08/16 07:38:48;;;;;;;21.63;18.40;;;22.50;99.90;;;;;;4806237;29;20454;-78
2023/08/16 07:41:14;;;;;;;18.93;17.13;;;22.50;99.90;;;;;;4811853;29;20306;-79
2023/08/16 07:43:40;;;;;;;19.30;17.20;;;22.50;99.90;;;;;;4814739;29;20264;-78
2023/08/16 07:46:06;;;;;;;19.23;17.37;;;22.50;99.90;;;;;;4804317;29;21007;-78
2023/08/16 07:48:32;;;;;;;19.50;17.80;;;22.50;99.90;;;;;;4812210;29;20193;-80
2023/08/16 07:50:57;;;;;;;18.80;16.80;;;22.50;99.90;;;;;;4806821;29;20207;-78
2023/08/16 07:53:23;;;;;;;18.87;17.10;;;22.60;99.90;;;;;;4806962;29;20804;-82
2023/08/16 07:55:49;;;;;;;17.53;15.80;;;22.60;99.90;;;;;;4807531;29;20217;-78
2023/08/16 07:58:15;;;;;;;16.63;15.03;;;22.60;99.90;;;;;;4805126;29;20185;-83
2023/08/16 08:00:42;;;;;;;19.63;17.50;;;22.60;99.90;;;;;;4797757;29;20758;-83
2023/08/16 08:03:09;;;;;;;15.37;13.87;;;22.60;99.90;;;;;;4806577;29;20441;-78
2023/08/16 08:05:35;;;;;;;17.03;15.43;;;22.50;99.90;;;;;;4806942;29;21162;-83
2023/08/16 08:08:01;;;;;;;18.23;16.53;;;22.50;99.90;;;;;;4832230;29;20449;-79
2023/08/16 08:10:29;;;;;;;15.80;14.30;;;22.50;99.90;;;;;;4807901;29;20980;-78
2023/08/16 08:12:55;;;;;;;15.40;13.90;;;22.60;99.90;;;;;;4804192;29;20305;-82
2023/08/16 08:15:20;;;;;;;16.73;15.10;;;22.60;99.90;;;;;;4804747;29;20880;-83
2023/08/16 08:17:47;;;;;;;14.97;13.47;;;22.60;99.90;;;;;;4805798;29;20200;-79
2023/08/16 08:20:14;;;;;;;14.63;13.23;;;22.60;99.90;;;;;;4806349;29;20223;-79
2023/08/16 08:22:40;;;;;;;16.47;14.83;;;22.70;99.90;;;;;;4803603;29;20442;-82
2023/08/16 08:25:07;;;;;;;15.80;12.63;;;22.70;99.90;;;;;;4812647;29;20446;-78
2023/08/16 08:27:33;;;;;;;14.60;13.07;;;22.80;99.90;;;;;;4814707;29;20464;-83
2023/08/16 08:29:59;;;;;;;14.17;12.87;;;22.80;99.90;;;;;;4806964;29;20508;-83
2023/08/16 08:32:24;;;;;;;13.97;12.77;;;22.90;99.90;;;;;;4803893;29;20280;-82
2023/08/16 08:34:50;;;;;;;13.97;12.70;;;23.00;99.90;;;;;;4802588;29;20639;-79
2023/08/16 08:37:15;;;;;;;13.80;12.50;;;23.10;99.90;;;;;;4806177;29;20257;-78
2023/08/16 08:39:41;;;;;;;12.40;11.30;;;23.20;99.90;;;;;;4806158;29;20214;-83
2023/08/16 08:42:09;;;;;;;11.70;10.73;;;23.20;99.90;;;;;;4802859;29;20208;-83
2023/08/16 08:44:38;;;;;;;13.17;11.90;;;23.30;99.90;;;;;;4802240;29;20403;-83
2023/08/16 08:47:09;;;;;;;12.77;11.53;;;23.30;99.90;;;;;;4803374;29;20699;-79
2023/08/16 08:49:35;;;;;;;12.17;11.07;;;23.40;99.90;;;;;;4802880;29;20610;-79
2023/08/16 08:52:04;;;;;;;13.60;12.30;;;23.40;99.90;;;;;;4809458;29;20793;-79
2023/08/16 08:54:31;;;;;;;13.10;12.00;;;23.50;99.90;;;;;;4807667;29;20456;-78
2023/08/16 08:57:02;;;;;;;13.23;11.90;;;23.60;99.90;;;;;;4807232;29;20491;-83
2023/08/16 08:59:33;;;;;;;14.83;13.37;;;23.60;99.90;;;;;;4808136;29;20449;-79
2023/08/16 09:02:00;;;;;;;13.73;12.53;;;23.60;99.90;;;;;;4804688;29;20441;-83
2023/08/16 09:04:29;;;;;;;15.60;14.10;;;23.60;99.90;;;;;;4807865;29;20509;-79
2023/08/16 09:06:56;;;;;;;15.50;14.10;;;23.60;99.90;;;;;;4807875;29;20441;-79
2023/08/16 09:09:23;;;;;;;15.23;13.90;;;23.60;99.90;;;;;;4808389;29;20483;-78
2023/08/16 09:11:48;;;;;;;15.43;14.03;;;23.70;99.90;;;;;;4805555;29;20921;-79
2023/08/16 09:14:14;;;;;;;16.37;14.77;;;23.70;99.90;;;;;;4808347;29;20687;-82
2023/08/16 09:16:40;;;;;;;13.37;12.17;;;23.80;99.90;;;;;;4827259;29;20270;-79
2023/08/16 09:19:13;;;;;;;16.17;14.17;;;23.80;99.90;;;;;;4803043;29;20640;-79
2023/08/16 09:21:43;;;;;;;12.70;11.40;;;23.90;99.90;;;;;;4801054;29;20274;-79
2023/08/16 09:24:09;;;;;;;12.97;11.67;;;23.90;99.90;;;;;;4797514;29;20928;-83
2023/08/16 09:26:39;;;;;;;12.73;11.53;;;23.80;99.90;;;;;;4797200;29;20960;-83
2023/08/16 09:29:06;;;;;;;12.60;11.50;;;23.90;99.90;;;;;;4798778;29;20429;-83
2023/08/16 09:31:39;;;;;;;13.50;12.30;;;23.90;99.90;;;;;;4797638;29;20838;-83
2023/08/16 09:34:09;;;;;;;15.07;13.67;;;23.80;99.90;;;;;;4800633;29;20474;-78
2023/08/16 09:36:35;;;;;;;14.50;13.10;;;23.90;99.90;;;;;;4803284;29;20514;-78
2023/08/16 09:39:04;;;;;;;40.77;28.60;;;23.90;99.90;;;;;;4802355;29;20445;-83
2023/08/16 09:41:31;;;;;;;24.63;18.97;;;23.90;99.90;;;;;;4808552;29;21028;-78
2023/08/16 09:44:07;;;;;;;17.50;14.60;;;23.90;99.90;;;;;;4808534;29;20452;-78
2023/08/16 09:46:34;;;;;;;57.63;38.90;;;23.90;99.90;;;;;;4809307;29;20456;-78
2023/08/16 09:49:10;;;;;;;33.73;26.30;;;23.90;99.90;;;;;;4810308;29;20472;-78
2023/08/16 09:51:40;;;;;;;15.40;13.80;;;24.00;99.90;;;;;;4811803;29;20469;-79
2023/08/16 09:54:13;;;;;;;13.80;12.40;;;24.10;99.90;;;;;;4809619;29;20848;-83
2023/08/16 09:56:40;;;;;;;12.53;11.20;;;24.20;99.90;;;;;;4802369;29;20464;-83
2023/08/16 09:59:10;;;;;;;12.37;11.00;;;24.40;99.90;;;;;;4809306;29;20445;-83
2023/08/16 10:01:37;;;;;;;12.23;11.10;;;24.50;99.90;;;;;;4821080;29;20521;-78
2023/08/16 10:04:03;;;;;;;11.70;10.70;;;24.60;99.90;;;;;;4808568;29;20439;-82
2023/08/16 10:06:34;;;;;;;11.57;10.47;;;24.60;99.90;;;;;;4807119;29;20622;-79
2023/08/16 10:09:04;;;;;;;11.90;10.70;;;24.70;99.90;;;;;;4808302;29;20428;-84
2023/08/16 10:11:33;;;;;;;12.53;11.33;;;24.90;99.90;;;;;;4817374;29;20452;-78
2023/08/16 10:14:02;;;;;;;10.10;9.13;;;25.00;99.90;;;;;;4814877;29;20477;-83
2023/08/16 10:16:30;;;;;;;11.23;10.17;;;25.10;99.90;;;;;;4816923;29;20452;-84
2023/08/16 10:18:59;;;;;;;11.30;10.30;;;25.20;99.90;;;;;;4814972;29;20429;-78
2023/08/16 10:21:27;;;;;;;10.00;9.10;;;25.30;99.90;;;;;;4815567;29;20796;-79
2023/08/16 10:23:55;;;;;;;10.90;9.90;;;25.40;99.90;;;;;;4814720;29;20825;-83
2023/08/16 10:26:23;;;;;;;10.93;9.83;;;25.60;99.90;;;;;;4815581;29;20923;-79
2023/08/16 10:28:54;;;;;;;9.90;9.20;;;25.70;99.90;;;;;;4813084;29;20629;-79
2023/08/16 10:31:25;;;;;;;12.40;9.50;;;25.80;99.90;;;;;;4814960;29;20437;-83
2023/08/16 10:33:53;;;;;;;11.53;9.90;;;25.90;99.90;;;;;;4815345;29;20469;-83
2023/08/16 10:36:20;;;;;;;9.70;9.00;;;25.90;99.90;;;;;;4817125;29;20425;-83
2023/08/16 10:38:56;;;;;;;10.23;9.43;;;26.00;99.90;;;;;;4816409;29;20420;-79
2023/08/16 10:41:22;;;;;;;11.50;10.50;;;26.00;99.90;;;;;;4814822;29;20452;-80
2023/08/16 10:43:49;;;;;;;10.30;9.30;;;26.10;99.90;;;;;;4816865;29;20499;-82
2023/08/16 10:46:26;;;;;;;9.93;9.03;;;26.20;99.90;;;;;;4797433;29;20521;-80
2023/08/16 10:48:58;;;;;;;11.37;10.27;;;26.30;99.90;;;;;;4805526;29;20919;-83
2023/08/16 10:51:25;;;;;;;11.93;9.87;;;26.40;99.90;;;;;;4834282;29;20719;-79
2023/08/16 10:53:51;;;;;;;9.80;8.87;;;26.40;99.90;;;;;;4833458;29;20599;-78
2023/08/16 10:56:18;;;;;;;9.87;9.00;;;26.40;99.90;;;;;;4834770;29;20424;-83
2023/08/16 10:58:49;;;;;;;10.47;9.57;;;26.50;99.90;;;;;;4818054;29;20175;-83
2023/08/16 11:01:19;;;;;;;9.37;8.67;;;26.50;99.90;;;;;;4815470;29;20437;-79
2023/08/16 11:03:46;;;;;;;9.33;8.60;;;26.50;99.90;;;;;;4813752;29;20602;-79
2023/08/16 11:06:13;;;;;;;8.10;7.50;;;26.50;99.90;;;;;;4809427;29;20541;-83
2023/08/16 11:08:41;;;;;;;8.27;7.63;;;26.60;99.90;;;;;;4804496;29;20510;-83
2023/08/16 11:11:07;;;;;;;8.13;7.33;;;26.60;99.90;;;;;;4814665;29;20441;-83
2023/08/16 11:13:33;;;;;;;8.13;7.33;;;26.70;99.90;;;;;;4810872;29;20495;-83
2023/08/16 11:16:02;;;;;;;7.70;7.10;;;26.70;99.90;;;;;;4815997;29;20852;-79
2023/08/16 11:18:32;;;;;;;9.20;6.87;;;26.80;99.90;;;;;;4830865;29;20186;-83
2023/08/16 11:21:03;;;;;;;8.73;7.87;;;26.90;99.90;;;;;;4818855;29;20667;-79
2023/08/16 11:23:39;;;;;;;8.17;7.57;;;26.90;99.90;;;;;;4804675;29;20578;-82
2023/08/16 11:26:07;;;;;;;7.93;7.27;;;26.90;99.90;;;;;;4815190;29;20823;-79
2023/08/16 11:28:34;;;;;;;9.03;8.23;;;27.00;99.90;;;;;;4814025;29;20414;-79
2023/08/16 11:31:05;;;;;;;9.90;9.10;;;27.00;99.90;;;;;;4813756;29;20862;-82
2023/08/16 11:33:38;;;;;;;8.30;7.50;;;27.10;99.90;;;;;;4811324;29;20520;-79
2023/08/16 11:36:09;;;;;;;8.07;7.37;;;27.10;99.90;;;;;;4803042;29;20507;-79
2023/08/16 11:38:35;;;;;;;7.87;7.27;;;27.10;99.90;;;;;;4813254;29;20506;-82
2023/08/16 11:41:02;;;;;;;9.17;8.47;;;27.20;99.90;;;;;;4814026;29;20493;-83
2023/08/16 11:43:29;;;;;;;8.90;8.00;;;27.20;99.90;;;;;;4805256;29;20490;-83
2023/08/16 11:45:57;;;;;;;8.03;7.33;;;27.20;99.90;;;;;;4795715;29;20798;-79
2023/08/16 11:48:29;;;;;;;7.63;7.03;;;27.30;99.90;;;;;;4797918;29;20437;-83
2023/08/16 11:50:56;;;;;;;7.20;6.70;;;27.30;99.90;;;;;;4807221;29;20498;-79
2023/08/16 11:53:22;;;;;;;8.40;7.60;;;27.40;99.90;;;;;;4806340;29;20501;-79
2023/08/16 11:55:58;;;;;;;7.50;6.90;;;27.40;99.90;;;;;;4800927;29;20517;-81
2023/08/16 11:58:24;;;;;;;8.77;7.87;;;27.50;99.90;;;;;;4804097;29;20447;-81
2023/08/16 12:00:51;;;;;;;8.10;7.30;;;27.50;99.90;;;;;;4807101;29;20465;-79
2023/08/16 12:03:17;;;;;;;8.30;7.27;;;27.50;99.90;;;;;;4799120;29;20681;-80
2023/08/16 12:05:50;;;;;;;8.17;7.43;;;27.60;99.90;;;;;;4796208;29;20534;-79
2023/08/16 12:08:22;;;;;;;7.70;7.10;;;27.70;99.90;;;;;;4793887;29;20444;-83
2023/08/16 12:10:54;;;;;;;9.07;8.27;;;27.80;99.90;;;;;;4794968;29;20457;-80
2023/08/16 12:13:21;;;;;;;7.90;7.20;;;27.90;99.90;;;;;;4794076;29;20578;-82
2023/08/16 12:15:47;;;;;;;7.73;7.10;;;27.90;99.90;;;;;;4793552;29;20447;-79
2023/08/16 12:18:17;;;;;;;7.53;6.93;;;28.00;99.90;;;;;;4794009;29;20423;-78
2023/08/16 12:20:46;;;;;;;7.77;7.00;;;28.10;99.90;;;;;;4792533;29;20865;-79
2023/08/16 12:23:12;;;;;;;7.63;7.03;;;28.20;99.90;;;;;;4792854;29;20436;-79
2023/08/16 12:25:38;;;;;;;7.70;6.90;;;28.30;99.90;;;;;;4794753;29;20456;-82
2023/08/16 12:28:04;;;;;;;7.70;7.10;;;28.40;99.90;;;;;;4805493;29;20184;-82
2023/08/16 12:30:29;;;;;;;8.10;7.30;;;28.40;99.90;;;;;;4790672;29;20207;-83